createdAt,value
2023-03-29T00:02:30.482Z,14.78
2023-03-29T00:05:04.809Z,16.18
2023-03-29T00:07:35.506Z,15.75
2023-03-29T00:10:04.754Z,15.27
2023-03-29T00:12:32.614Z,15.43
2023-03-29T00:15:00.039Z,14.95
2023-03-29T00:17:27.765Z,14.69
2023-03-29T00:20:01.310Z,15.50
2023-03-29T00:22:32.909Z,15.49
2023-03-29T00:24:59.887Z,15.38
2023-03-29T00:27:27.214Z,15.44
2023-03-29T00:29:54.187Z,15.40
2023-03-29T00:32:21.324Z,15.25
2023-03-29T00:34:50.856Z,15.71
2023-03-29T00:37:19.028Z,16.00
2023-03-29T00:39:46.912Z,15.43
2023-03-29T00:42:16.889Z,15.71
2023-03-29T00:45:25.348Z,15.97
2023-03-29T00:48:14.057Z,16.04
2023-03-29T00:50:43.979Z,15.64
2023-03-29T00:53:16.401Z,15.79
2023-03-29T00:55:55.643Z,15.77
2023-03-29T00:58:30.605Z,15.58
2023-03-29T01:01:08.814Z,15.23
2023-03-29T01:03:46.799Z,15.28
2023-03-29T01:06:17.999Z,15.23
2023-03-29T01:09:01.324Z,15.23
2023-03-29T01:11:37.279Z,15.53
2023-03-29T01:14:15.559Z,15.57
2023-03-29T01:16:42.813Z,15.08
2023-03-29T01:19:15.934Z,15.61
2023-03-29T01:22:28.834Z,16.02
2023-03-29T01:25:26.224Z,15.96
2023-03-29T01:28:10.842Z,15.89
2023-03-29T01:30:46.792Z,15.79
2023-03-29T01:33:26.288Z,15.64
2023-03-29T01:36:05.377Z,15.36
2023-03-29T01:38:58.191Z,15.51
2023-03-29T01:41:56.618Z,15.62
2023-03-29T01:44:54.120Z,16.03
2023-03-29T01:47:34.108Z,15.58
2023-03-29T01:50:17.636Z,15.75
2023-03-29T01:52:59.957Z,15.96
2023-03-29T01:55:35.094Z,16.35
2023-03-29T01:58:07.308Z,16.17
2023-03-29T02:00:36.316Z,15.82
2023-03-29T02:03:09.937Z,16.04
2023-03-29T02:05:39.563Z,15.75
2023-03-29T02:08:09.839Z,15.37
2023-03-29T02:10:37.620Z,15.36
2023-03-29T02:13:05.746Z,15.70
2023-03-29T02:15:34.219Z,15.88
2023-03-29T02:18:04.009Z,15.38
2023-03-29T02:20:39.350Z,15.29
2023-03-29T02:23:25.030Z,15.61
2023-03-29T02:25:56.954Z,15.32
2023-03-29T02:28:27.017Z,15.32
2023-03-29T02:31:39.649Z,15.17
2023-03-29T02:34:13.009Z,14.96
2023-03-29T02:36:49.862Z,14.53
2023-03-29T02:39:18.541Z,15.09
2023-03-29T02:41:49.893Z,15.53
2023-03-29T02:44:24.897Z,14.89
2023-03-29T02:47:00.172Z,14.60
2023-03-29T02:49:27.856Z,14.48
2023-03-29T02:52:01.461Z,14.88
2023-03-29T02:54:32.035Z,14.67
2023-03-29T02:57:06.472Z,15.18
2023-03-29T02:59:34.788Z,15.34
2023-03-29T03:02:03.240Z,15.23
2023-03-29T03:04:31.305Z,15.12
2023-03-29T03:06:58.977Z,15.42
2023-03-29T03:09:26.804Z,15.28
2023-03-29T03:11:53.885Z,15.34
2023-03-29T03:14:22.848Z,15.50
2023-03-29T03:16:50.844Z,15.45
2023-03-29T03:19:18.159Z,15.04
2023-03-29T03:21:46.996Z,14.91
2023-03-29T03:24:15.534Z,15.15
2023-03-29T03:26:43.116Z,14.64
2023-03-29T03:29:11.224Z,14.83
2023-03-29T03:32:01.112Z,14.63
2023-03-29T03:34:51.614Z,15.00
2023-03-29T03:37:19.951Z,14.76
2023-03-29T03:39:47.648Z,14.92
2023-03-29T03:42:16.087Z,14.13
2023-03-29T03:44:45.468Z,14.49
2023-03-29T03:47:42.219Z,14.40
2023-03-29T03:50:20.918Z,13.33
2023-03-29T03:52:48.146Z,13.82
2023-03-29T03:55:16.428Z,13.87
2023-03-29T03:58:05.027Z,14.38
2023-03-29T04:00:33.315Z,13.97
2023-03-29T04:03:19.040Z,14.20
2023-03-29T04:05:47.360Z,14.75
2023-03-29T04:08:16.479Z,14.76
2023-03-29T04:11:04.634Z,13.69
2023-03-29T04:13:37.572Z,13.89
2023-03-29T04:16:29.288Z,14.63
2023-03-29T04:19:02.860Z,15.02
2023-03-29T04:21:30.700Z,14.58
2023-03-29T04:23:58.188Z,13.82
2023-03-29T04:26:25.848Z,13.35
2023-03-29T04:29:01.360Z,13.82
2023-03-29T04:31:39.813Z,14.38
2023-03-29T04:34:30.033Z,13.73
2023-03-29T04:36:58.840Z,14.29
2023-03-29T04:39:34.302Z,14.47
2023-03-29T04:42:05.174Z,14.42
2023-03-29T04:44:33.612Z,14.51
2023-03-29T04:47:02.069Z,14.56
2023-03-29T04:49:56.337Z,13.91
2023-03-29T04:52:37.875Z,13.58
2023-03-29T04:55:07.334Z,14.19
2023-03-29T04:57:44.563Z,14.28
2023-03-29T05:00:20.265Z,15.24
2023-03-29T05:03:07.459Z,15.42
2023-03-29T05:05:39.160Z,15.03
2023-03-29T05:08:09.430Z,15.48
2023-03-29T05:10:55.474Z,14.95
2023-03-29T05:13:23.387Z,13.59
2023-03-29T05:15:51.961Z,14.15
2023-03-29T05:18:20.267Z,14.36
2023-03-29T05:20:47.773Z,14.48
2023-03-29T05:23:19.495Z,14.58
2023-03-29T05:26:10.180Z,15.01
2023-03-29T05:28:39.806Z,15.26
2023-03-29T05:31:08.731Z,15.81
2023-03-29T05:33:38.824Z,15.93
2023-03-29T05:36:15.420Z,16.16
2023-03-29T05:38:49.898Z,16.19
2023-03-29T05:41:18.860Z,15.60
2023-03-29T05:43:52.151Z,15.27
2023-03-29T05:46:22.383Z,15.13
2023-03-29T05:48:53.316Z,15.86
2023-03-29T05:51:24.557Z,15.66
2023-03-29T05:53:55.190Z,15.90
2023-03-29T05:56:22.651Z,15.64
2023-03-29T05:58:50.943Z,15.82
2023-03-29T06:01:19.296Z,15.39
2023-03-29T06:03:57.898Z,15.76
2023-03-29T06:06:32.272Z,15.22
2023-03-29T06:09:01.329Z,15.29
2023-03-29T06:11:35.320Z,15.28
2023-03-29T06:14:08.745Z,15.96
2023-03-29T06:16:42.818Z,15.37
2023-03-29T06:19:11.116Z,15.73
2023-03-29T06:21:40.068Z,16.15
2023-03-29T06:24:08.898Z,14.90
2023-03-29T06:26:42.281Z,15.44
2023-03-29T06:29:10.286Z,14.83
2023-03-29T06:31:40.850Z,14.79
2023-03-29T06:34:09.619Z,15.06
2023-03-29T06:37:03.574Z,15.47
2023-03-29T06:39:31.223Z,15.23
2023-03-29T06:42:21.287Z,15.42
2023-03-29T06:45:19.031Z,15.50
2023-03-29T06:47:50.935Z,16.15
2023-03-29T06:50:19.378Z,16.00
2023-03-29T06:53:08.716Z,15.93
2023-03-29T06:55:36.452Z,15.72
2023-03-29T06:58:37.070Z,16.15
2023-03-29T07:01:14.125Z,16.01
2023-03-29T07:04:08.180Z,16.48
2023-03-29T07:06:58.680Z,16.46
2023-03-29T07:09:26.224Z,15.86
2023-03-29T07:12:26.706Z,16.18
2023-03-29T07:14:59.350Z,16.47
2023-03-29T07:17:44.842Z,16.13
2023-03-29T07:20:15.516Z,16.83
2023-03-29T07:22:51.028Z,16.29
2023-03-29T07:25:21.425Z,16.56
2023-03-29T07:27:49.309Z,16.79
2023-03-29T07:30:22.785Z,15.99
2023-03-29T07:32:51.230Z,17.02
2023-03-29T07:35:33.243Z,16.95
2023-03-29T07:38:01.089Z,15.91
2023-03-29T07:40:29.328Z,15.97
2023-03-29T07:42:57.078Z,15.95
2023-03-29T07:45:29.075Z,16.24
2023-03-29T07:48:02.127Z,16.76
2023-03-29T07:50:46.435Z,16.69
2023-03-29T07:53:14.557Z,16.04
2023-03-29T07:55:47.318Z,17.12
2023-03-29T07:58:37.712Z,16.63
2023-03-29T08:01:06.379Z,16.92
2023-03-29T08:03:52.461Z,16.58
2023-03-29T08:06:22.884Z,17.43
2023-03-29T08:08:50.428Z,16.33
2023-03-29T08:11:18.788Z,15.67
2023-03-29T08:13:59.611Z,17.11
2023-03-29T08:16:27.358Z,16.65
2023-03-29T08:19:07.129Z,16.26
2023-03-29T08:22:09.835Z,16.63
2023-03-29T08:24:57.052Z,16.87
2023-03-29T08:27:29.042Z,16.79
2023-03-29T08:29:57.116Z,16.82
2023-03-29T08:32:24.582Z,16.80
2023-03-29T08:34:52.549Z,16.82
2023-03-29T08:37:26.612Z,17.19
2023-03-29T08:39:57.142Z,16.63
2023-03-29T08:43:13.816Z,16.49
2023-03-29T08:46:16.543Z,17.41
2023-03-29T08:48:56.536Z,17.93
2023-03-29T08:51:33.060Z,16.79
2023-03-29T08:54:14.019Z,17.99
2023-03-29T08:57:14.914Z,17.90
2023-03-29T08:59:50.035Z,17.63
2023-03-29T09:02:24.988Z,17.25
2023-03-29T09:05:09.558Z,17.37
2023-03-29T09:07:46.077Z,17.23
2023-03-29T09:10:18.286Z,17.54
2023-03-29T09:13:06.776Z,18.15
2023-03-29T09:15:56.802Z,16.91
2023-03-29T09:18:51.101Z,17.63
2023-03-29T09:22:17.129Z,17.90
2023-03-29T09:24:54.145Z,17.61
2023-03-29T09:27:22.979Z,17.56
2023-03-29T09:30:25.865Z,18.66
2023-03-29T09:33:25.111Z,18.56
2023-03-29T09:36:23.483Z,18.72
2023-03-29T09:38:54.396Z,18.58
2023-03-29T09:41:45.554Z,18.26
2023-03-29T09:44:30.241Z,19.04
2023-03-29T09:47:30.756Z,19.18
2023-03-29T09:50:31.368Z,19.08
2023-03-29T09:53:01.382Z,19.16
2023-03-29T09:55:33.856Z,18.20
2023-03-29T09:58:30.958Z,18.48
2023-03-29T10:01:01.930Z,18.87
2023-03-29T10:03:32.030Z,18.92
2023-03-29T10:06:11.541Z,19.04
2023-03-29T10:08:47.830Z,18.13
2023-03-29T10:11:30.108Z,19.29
2023-03-29T10:14:05.479Z,18.26
2023-03-29T10:16:41.926Z,19.31
2023-03-29T10:19:34.615Z,18.19
2023-03-29T10:22:08.261Z,18.57
2023-03-29T10:24:35.679Z,18.39
2023-03-29T10:27:10.852Z,18.75
2023-03-29T10:29:42.393Z,18.84
2023-03-29T10:32:32.645Z,18.83
2023-03-29T10:35:15.716Z,19.47
2023-03-29T10:37:45.236Z,19.10
2023-03-29T10:40:27.700Z,19.17
2023-03-29T10:43:00.371Z,19.48
2023-03-29T10:45:34.959Z,19.47
2023-03-29T10:48:07.077Z,19.73
2023-03-29T10:50:37.035Z,19.44
2023-03-29T10:53:14.710Z,20.00
2023-03-29T10:56:04.132Z,20.81
2023-03-29T10:58:48.613Z,19.80
2023-03-29T11:01:45.997Z,19.66
2023-03-29T11:04:36.408Z,19.10
2023-03-29T11:07:26.279Z,19.34
2023-03-29T11:09:59.496Z,19.86
2023-03-29T11:12:41.896Z,21.05
2023-03-29T11:15:30.734Z,20.63
2023-03-29T11:18:41.248Z,20.82
2023-03-29T11:21:52.407Z,20.16
2023-03-29T11:25:06.401Z,19.11
2023-03-29T11:27:47.277Z,19.00
2023-03-29T11:30:30.527Z,19.80
2023-03-29T11:33:44.708Z,20.78
2023-03-29T11:36:43.123Z,20.65
2023-03-29T11:39:54.354Z,22.39
2023-03-29T11:42:29.230Z,23.76
2023-03-29T11:44:59.627Z,22.14
2023-03-29T11:47:37.161Z,22.63
2023-03-29T11:50:34.182Z,22.04
2023-03-29T11:53:14.679Z,22.26
2023-03-29T11:55:42.695Z,21.64
2023-03-29T11:58:23.407Z,21.17
2023-03-29T12:01:06.405Z,22.19
2023-03-29T12:03:52.216Z,23.52
2023-03-29T12:06:34.587Z,22.57
2023-03-29T12:09:27.594Z,22.83
2023-03-29T12:12:09.655Z,22.81
2023-03-29T12:14:49.769Z,22.74
2023-03-29T12:17:25.045Z,22.53
2023-03-29T12:20:23.528Z,22.69
2023-03-29T12:22:54.381Z,25.21
2023-03-29T12:25:54.677Z,25.04
2023-03-29T12:28:48.746Z,24.94
2023-03-29T12:31:37.077Z,23.62
2023-03-29T12:34:03.991Z,22.67
2023-03-29T12:37:36.828Z,22.72
2023-03-29T12:40:26.229Z,24.98
2023-03-29T12:43:43.480Z,25.57
2023-03-29T12:46:55.080Z,24.98
2023-03-29T12:49:33.097Z,23.79
2023-03-29T12:52:04.253Z,22.70
2023-03-29T12:54:33.071Z,22.92
2023-03-29T12:57:25.549Z,22.96
2023-03-29T12:59:53.434Z,22.16
2023-03-29T13:02:37.378Z,21.49
2023-03-29T13:05:25.193Z,20.08
2023-03-29T13:07:52.692Z,20.05
2023-03-29T13:10:37.249Z,20.70
2023-03-29T13:13:28.375Z,20.10
2023-03-29T13:15:56.287Z,20.61
2023-03-29T13:19:11.426Z,21.35
2023-03-29T13:22:00.407Z,20.63
2023-03-29T13:24:46.225Z,21.07
2023-03-29T13:27:50.041Z,20.87
2023-03-29T13:30:43.763Z,21.14
2023-03-29T13:33:49.063Z,21.40
2023-03-29T13:36:54.859Z,21.60
2023-03-29T13:39:34.616Z,22.07
2023-03-29T13:42:34.108Z,21.30
2023-03-29T13:45:27.404Z,21.45
2023-03-29T13:48:22.916Z,22.41
2023-03-29T13:51:13.252Z,22.42
2023-03-29T13:54:03.558Z,23.04
2023-03-29T13:57:10.098Z,21.32
2023-03-29T13:59:51.894Z,22.36
2023-03-29T14:02:52.186Z,22.45
2023-03-29T14:05:38.648Z,22.33
2023-03-29T14:08:30.568Z,22.26
2023-03-29T14:11:01.782Z,22.24
2023-03-29T14:13:30.120Z,21.19
2023-03-29T14:16:04.431Z,21.46
2023-03-29T14:18:51.416Z,21.52
2023-03-29T14:21:20.986Z,21.71
2023-03-29T14:23:57.600Z,21.25
2023-03-29T14:26:30.686Z,21.08
2023-03-29T14:29:01.442Z,21.55
2023-03-29T14:31:37.866Z,21.12
2023-03-29T14:34:11.571Z,20.23
2023-03-29T14:36:39.284Z,20.62
2023-03-29T14:39:32.299Z,20.58
2023-03-29T14:41:59.861Z,20.88
2023-03-29T14:44:34.778Z,20.03
2023-03-29T14:47:03.501Z,20.55
2023-03-29T14:49:31.930Z,20.03
2023-03-29T14:52:00.200Z,20.34
2023-03-29T14:54:32.577Z,20.17
2023-03-29T14:57:00.129Z,20.29
2023-03-29T14:59:41.270Z,20.86
2023-03-29T15:02:28.636Z,20.73
2023-03-29T15:05:07.558Z,20.87
2023-03-29T15:07:36.830Z,21.10
2023-03-29T15:10:06.428Z,21.96
2023-03-29T15:12:34.296Z,20.64
2023-03-29T15:15:02.615Z,21.14
2023-03-29T15:17:50.458Z,21.63
2023-03-29T15:20:33.933Z,20.78
2023-03-29T15:23:16.317Z,21.44
2023-03-29T15:25:55.831Z,21.86
2023-03-29T15:28:31.134Z,21.66
2023-03-29T15:31:07.916Z,21.86
2023-03-29T15:33:39.281Z,20.68
2023-03-29T15:36:12.506Z,20.71
2023-03-29T15:38:44.609Z,20.90
2023-03-29T15:41:14.549Z,21.27
2023-03-29T15:43:42.553Z,21.06
2023-03-29T15:46:14.466Z,21.33
2023-03-29T15:48:42.165Z,21.91
2023-03-29T15:51:12.624Z,21.43
2023-03-29T15:53:40.538Z,21.24
2023-03-29T15:56:11.238Z,21.29
2023-03-29T15:58:38.338Z,21.03
2023-03-29T16:01:33.881Z,21.25
2023-03-29T16:04:20.965Z,21.31
2023-03-29T16:06:54.236Z,21.50
2023-03-29T16:09:22.433Z,21.55
2023-03-29T16:11:50.261Z,21.34
2023-03-29T16:14:30.518Z,21.54
2023-03-29T16:17:00.149Z,21.03
2023-03-29T16:19:28.795Z,21.12
2023-03-29T16:21:57.009Z,21.23
2023-03-29T16:24:31.125Z,21.49
2023-03-29T16:26:59.640Z,21.08
2023-03-29T16:29:27.517Z,21.17
2023-03-29T16:31:55.330Z,21.25
2023-03-29T16:34:23.112Z,21.06
2023-03-29T16:36:50.777Z,20.96
2023-03-29T16:39:18.350Z,21.36
2023-03-29T16:41:48.344Z,21.00
2023-03-29T16:44:23.852Z,21.69
2023-03-29T16:46:54.222Z,21.33
2023-03-29T16:49:21.723Z,20.73
2023-03-29T16:51:49.198Z,21.22
2023-03-29T16:54:17.344Z,20.91
2023-03-29T16:56:45.193Z,21.36
2023-03-29T16:59:12.772Z,20.90
2023-03-29T17:01:40.577Z,20.68
2023-03-29T17:04:08.850Z,20.91
2023-03-29T17:06:36.892Z,21.00
2023-03-29T17:09:05.020Z,21.02
2023-03-29T17:11:32.679Z,21.08
2023-03-29T17:14:00.486Z,20.85
2023-03-29T17:16:29.086Z,21.15
2023-03-29T17:19:00.432Z,21.53
2023-03-29T17:21:29.161Z,20.97
2023-03-29T17:23:56.584Z,20.96
2023-03-29T17:26:24.139Z,20.79
2023-03-29T17:28:51.477Z,20.86
2023-03-29T17:31:19.352Z,20.44
2023-03-29T17:33:47.426Z,20.49
2023-03-29T17:36:15.087Z,20.89
2023-03-29T17:38:42.967Z,20.26
2023-03-29T17:41:10.962Z,20.72
2023-03-29T17:43:38.282Z,19.52
2023-03-29T17:46:06.056Z,20.55
2023-03-29T17:48:33.554Z,20.92
2023-03-29T17:51:01.185Z,20.22
2023-03-29T17:53:28.610Z,20.51
2023-03-29T17:55:55.630Z,20.63
2023-03-29T17:58:22.988Z,20.34
2023-03-29T18:00:50.335Z,19.67
2023-03-29T18:03:17.591Z,20.14
2023-03-29T18:05:44.971Z,19.55
2023-03-29T18:08:13.606Z,19.78
2023-03-29T18:10:41.256Z,19.71
2023-03-29T18:13:11.384Z,19.96
2023-03-29T18:15:38.720Z,20.45
2023-03-29T18:18:06.243Z,20.63
2023-03-29T18:20:33.885Z,20.42
2023-03-29T18:23:01.190Z,20.27
2023-03-29T18:25:29.367Z,20.55
2023-03-29T18:27:56.800Z,20.94
2023-03-29T18:30:24.071Z,20.76
2023-03-29T18:32:51.414Z,20.45
2023-03-29T18:35:23.498Z,20.26
2023-03-29T18:37:52.615Z,20.60
2023-03-29T18:40:24.848Z,20.49
2023-03-29T18:42:55.895Z,20.57
2023-03-29T18:45:23.578Z,20.72
2023-03-29T18:47:51.075Z,20.45
2023-03-29T18:50:18.753Z,20.25
2023-03-29T18:52:46.176Z,20.09
2023-03-29T18:55:14.266Z,19.74
2023-03-29T18:57:41.744Z,20.06
2023-03-29T19:00:12.110Z,20.44
2023-03-29T19:02:40.198Z,20.31
2023-03-29T19:05:08.884Z,20.56
2023-03-29T19:07:36.798Z,19.77
2023-03-29T19:10:05.218Z,20.28
2023-03-29T19:12:35.514Z,20.10
2023-03-29T19:15:03.046Z,20.20
2023-03-29T19:17:30.947Z,20.06
2023-03-29T19:19:58.056Z,20.15
2023-03-29T19:22:25.215Z,19.86
2023-03-29T19:24:52.551Z,20.28
2023-03-29T19:27:19.930Z,20.49
2023-03-29T19:29:48.100Z,19.81
2023-03-29T19:32:15.645Z,19.52
2023-03-29T19:34:43.062Z,19.99
2023-03-29T19:37:10.561Z,19.65
2023-03-29T19:39:39.880Z,19.86
2023-03-29T19:42:07.612Z,20.22
2023-03-29T19:44:38.062Z,19.23
2023-03-29T19:47:06.030Z,19.82
2023-03-29T19:49:36.638Z,19.89
2023-03-29T19:52:03.837Z,20.16
2023-03-29T19:54:32.092Z,20.17
2023-03-29T19:56:59.936Z,19.91
2023-03-29T19:59:28.009Z,20.01
2023-03-29T20:01:56.788Z,20.57
2023-03-29T20:04:24.588Z,20.54
2023-03-29T20:06:52.186Z,20.23
2023-03-29T20:09:19.103Z,20.49
2023-03-29T20:11:49.095Z,20.25
2023-03-29T20:14:16.620Z,19.71
2023-03-29T20:16:44.655Z,20.19
2023-03-29T20:19:14.122Z,19.83
2023-03-29T20:21:41.781Z,20.12
2023-03-29T20:24:09.275Z,20.28
2023-03-29T20:26:36.296Z,20.47
2023-03-29T20:29:03.705Z,20.23
2023-03-29T20:31:31.327Z,20.42
2023-03-29T20:33:58.674Z,20.43
2023-03-29T20:36:26.706Z,19.97
2023-03-29T20:38:56.375Z,19.78
2023-03-29T20:41:23.346Z,20.13
2023-03-29T20:43:58.360Z,20.06
2023-03-29T20:46:33.455Z,20.09
2023-03-29T20:49:07.331Z,20.02
2023-03-29T20:51:34.705Z,20.08
2023-03-29T20:54:05.012Z,20.28
2023-03-29T20:56:35.315Z,20.25
2023-03-29T20:59:03.943Z,20.57
2023-03-29T21:01:31.740Z,20.05
2023-03-29T21:03:59.218Z,20.07
2023-03-29T21:06:26.534Z,20.16
2023-03-29T21:08:53.479Z,19.99
2023-03-29T21:11:21.122Z,20.75
2023-03-29T21:13:48.380Z,20.21
2023-03-29T21:16:15.677Z,20.20
2023-03-29T21:18:43.895Z,20.57
2023-03-29T21:21:12.828Z,20.13
2023-03-29T21:23:40.506Z,20.14
2023-03-29T21:26:09.197Z,20.17
2023-03-29T21:28:37.687Z,20.68
2023-03-29T21:31:08.502Z,20.27
2023-03-29T21:33:36.425Z,20.48
2023-03-29T21:36:03.956Z,20.34
2023-03-29T21:38:31.461Z,20.29
2023-03-29T21:40:59.699Z,20.59
2023-03-29T21:43:27.114Z,20.21
2023-03-29T21:45:54.518Z,20.53
2023-03-29T21:48:22.212Z,20.55
2023-03-29T21:50:50.945Z,20.76
2023-03-29T21:53:18.442Z,20.39
2023-03-29T21:55:48.354Z,20.55
2023-03-29T21:58:16.234Z,20.47
2023-03-29T22:00:43.750Z,19.99
2023-03-29T22:03:11.407Z,20.04
2023-03-29T22:05:38.969Z,20.05
2023-03-29T22:08:10.218Z,19.81
2023-03-29T22:10:41.440Z,20.39
2023-03-29T22:13:09.321Z,19.77
2023-03-29T22:15:36.674Z,20.27
2023-03-29T22:18:05.068Z,19.96
2023-03-29T22:20:34.149Z,19.60
2023-03-29T22:23:01.526Z,20.18
2023-03-29T22:25:28.848Z,20.04
2023-03-29T22:27:56.136Z,19.91
2023-03-29T22:30:23.658Z,20.09
2023-03-29T22:32:51.378Z,20.03
2023-03-29T22:35:18.770Z,20.10
2023-03-29T22:37:46.145Z,20.22
2023-03-29T22:40:13.715Z,20.76
2023-03-29T22:42:41.209Z,20.28
2023-03-29T22:45:09.359Z,20.43
2023-03-29T22:47:36.736Z,20.52
2023-03-29T22:50:04.458Z,20.18
2023-03-29T22:52:31.798Z,20.22
2023-03-29T22:54:59.155Z,20.49
2023-03-29T22:57:26.507Z,20.43
2023-03-29T22:59:53.840Z,20.38
2023-03-29T23:02:23.776Z,20.72
2023-03-29T23:04:51.241Z,20.63
2023-03-29T23:07:18.575Z,20.73
2023-03-29T23:09:46.092Z,20.79
2023-03-29T23:12:13.625Z,20.40
2023-03-29T23:14:42.733Z,20.47
2023-03-29T23:17:10.338Z,20.51
2023-03-29T23:19:38.043Z,20.84
2023-03-29T23:22:05.026Z,21.01
2023-03-29T23:24:32.354Z,21.06
2023-03-29T23:27:01.040Z,20.83
2023-03-29T23:29:28.434Z,20.77
2023-03-29T23:31:56.752Z,20.62
2023-03-29T23:34:24.064Z,20.68
2023-03-29T23:36:51.002Z,21.00
2023-03-29T23:39:18.300Z,21.15
2023-03-29T23:41:45.545Z,21.23
2023-03-29T23:44:12.859Z,21.62
2023-03-29T23:46:41.084Z,21.13
2023-03-29T23:49:08.500Z,21.19
2023-03-29T23:51:36.720Z,21.50
2023-03-29T23:54:03.961Z,21.15
2023-03-29T23:56:31.691Z,20.75
2023-03-29T23:58:59.076Z,20.81
